Time;durP1;ratioP1;P1;durP2;ratioP2;P2;SDS_P1;SDS_P2;PMS_P1;PMS_P2;Temp;Humidity;BMP_temperature;BMP_pressure;BME280_temperature;BME280_humidity;BME280_pressure;Samples;Min_cycle;Max_cycle;Signal;HPM_P1;HPM_P2
2021/12/25 00:02:07;;;;;;;17.37;13.03;;;10.70;99.90;;;;;;4984492;28;20496;-54
2021/12/25 00:04:33;;;;;;;19.97;13.60;;;10.70;99.90;;;;;;4983454;28;20237;-53
2021/12/25 00:06:59;;;;;;;16.00;10.90;;;10.70;99.90;;;;;;4984298;28;20491;-53
2021/12/25 00:09:25;;;;;;;17.97;12.53;;;10.80;99.90;;;;;;4983761;28;20201;-53
2021/12/25 00:11:51;;;;;;;20.93;12.50;;;10.80;99.90;;;;;;4983924;28;20193;-52
2021/12/25 00:14:18;;;;;;;13.20;10.90;;;10.80;99.90;;;;;;4982558;28;20440;-54
2021/12/25 00:16:44;;;;;;;16.23;11.80;;;10.80;99.90;;;;;;4982705;28;20838;-53
2021/12/25 00:19:10;;;;;;;14.97;10.93;;;10.80;99.90;;;;;;4984413;28;20437;-52
2021/12/25 00:21:36;;;;;;;13.50;11.07;;;10.70;99.90;;;;;;4981359;28;20488;-54
2021/12/25 00:24:03;;;;;;;22.73;14.07;;;10.60;99.90;;;;;;4985390;28;20241;-55
2021/12/25 00:26:50;;;;;;;19.97;13.67;;;10.50;99.90;;;;;;4981956;28;20583;-51
2021/12/25 00:29:36;;;;;;;17.73;13.13;;;10.60;99.90;;;;;;4984816;28;20515;-54
2021/12/25 00:34:36;;;;;;;15.80;12.23;;;10.80;99.90;;;;;;4984791;28;20448;-51
2021/12/25 00:37:02;;;;;;;17.87;12.67;;;10.80;99.90;;;;;;4987964;28;20425;-53
2021/12/25 00:39:29;;;;;;;17.20;13.23;;;10.70;99.90;;;;;;4985603;28;20491;-54
2021/12/25 00:41:56;;;;;;;20.17;12.93;;;10.70;99.90;;;;;;4986701;28;20432;-54
2021/12/25 00:44:22;;;;;;;18.90;13.00;;;10.50;99.90;;;;;;4986756;28;20464;-54
2021/12/25 00:46:48;;;;;;;19.00;12.90;;;10.40;99.90;;;;;;4982727;28;20559;-53
2021/12/25 00:49:13;;;;;;;20.70;14.40;;;10.30;99.90;;;;;;4985885;28;20855;-54
2021/12/25 00:51:39;;;;;;;17.20;12.63;;;10.50;99.90;;;;;;4987079;28;20182;-53
2021/12/25 00:54:05;;;;;;;20.20;13.47;;;10.70;99.90;;;;;;4986925;28;20217;-51
2021/12/25 00:56:30;;;;;;;18.00;13.70;;;10.70;99.90;;;;;;4987163;28;20228;-54
2021/12/25 00:58:56;;;;;;;22.27;14.97;;;10.60;99.90;;;;;;4984504;28;20186;-56
2021/12/25 01:01:21;;;;;;;17.20;13.20;;;10.60;99.90;;;;;;4971082;28;20334;-55
2021/12/25 01:03:48;;;;;;;19.70;13.07;;;10.70;99.90;;;;;;4987151;28;20201;-50
2021/12/25 01:06:14;;;;;;;21.10;15.00;;;10.70;99.90;;;;;;4984208;28;20683;-55
2021/12/25 01:08:40;;;;;;;20.20;14.30;;;10.80;99.90;;;;;;4989255;28;20441;-54
2021/12/25 01:11:06;;;;;;;16.00;12.80;;;10.90;99.90;;;;;;4984606;28;20436;-54
2021/12/25 01:13:36;;;;;;;22.60;13.87;;;11.00;99.90;;;;;;4985169;28;20201;-51
2021/12/25 01:29:42;;;;;;;21.00;13.93;;;10.70;99.90;;;;;;4985334;28;20472;-54
2021/12/25 01:32:37;;;;;;;18.80;14.43;;;10.90;99.90;;;;;;4986593;28;20835;-55
2021/12/25 01:48:24;;;;;;;24.10;15.40;;;10.80;99.90;;;;;;4983864;28;20448;-55
2021/12/25 01:50:50;;;;;;;19.03;14.30;;;10.70;99.90;;;;;;4984916;28;20860;-53
2021/12/25 01:53:16;;;;;;;24.80;15.20;;;10.70;99.90;;;;;;4983736;28;20838;-51
2021/12/25 01:55:42;;;;;;;22.80;15.87;;;10.60;99.90;;;;;;4983131;28;20452;-49
2021/12/25 01:58:08;;;;;;;22.03;14.97;;;10.60;99.90;;;;;;4985188;28;20417;-50
2021/12/25 02:00:47;;;;;;;22.77;15.43;;;10.60;99.90;;;;;;4985405;28;20185;-55
2021/12/25 02:03:17;;;;;;;20.43;14.47;;;10.60;99.90;;;;;;4981618;28;20442;-54
2021/12/25 02:05:43;;;;;;;23.90;15.90;;;10.70;99.90;;;;;;4984867;28;20452;-53
2021/12/25 02:08:08;;;;;;;23.77;16.23;;;10.50;99.90;;;;;;4980247;28;21497;-51
2021/12/25 02:10:34;;;;;;;24.50;16.73;;;10.40;99.90;;;;;;4980386;28;20434;-54
2021/12/25 02:13:02;;;;;;;22.60;16.23;;;10.40;99.90;;;;;;4986393;28;20224;-55
2021/12/25 02:15:29;;;;;;;25.87;16.57;;;10.40;99.90;;;;;;4979889;28;20206;-54
2021/12/25 02:20:42;;;;;;;25.00;16.73;;;10.30;99.90;;;;;;4981315;28;20436;-55
2021/12/25 02:23:21;;;;;;;24.00;16.70;;;10.30;99.90;;;;;;4981696;28;20966;-56
2021/12/25 02:25:49;;;;;;;24.27;18.33;;;10.40;99.90;;;;;;4980077;28;20570;-53
2021/12/25 02:28:16;;;;;;;25.50;18.57;;;10.40;99.90;;;;;;4982338;28;20433;-56
2021/12/25 02:30:43;;;;;;;26.97;16.90;;;10.30;99.90;;;;;;4984823;28;20468;-54
2021/12/25 02:33:09;;;;;;;23.67;17.77;;;10.30;99.90;;;;;;4981407;28;20471;-52
2021/12/25 02:35:35;;;;;;;25.63;18.47;;;10.40;99.90;;;;;;4981258;28;20453;-52
2021/12/25 02:38:04;;;;;;;25.27;17.50;;;10.50;99.90;;;;;;4985321;28;23322;-52
2021/12/25 02:40:30;;;;;;;26.90;17.20;;;10.50;99.90;;;;;;4983401;28;20429;-51
2021/12/25 02:42:56;;;;;;;24.80;17.00;;;10.60;99.90;;;;;;4982758;28;20440;-56
2021/12/25 02:45:23;;;;;;;23.83;16.83;;;10.60;99.90;;;;;;4982125;28;20229;-53
2021/12/25 02:47:51;;;;;;;24.60;16.73;;;10.60;99.90;;;;;;4982327;28;20228;-52
2021/12/25 02:50:27;;;;;;;26.83;16.63;;;10.40;99.90;;;;;;4964514;28;20444;-54
2021/12/25 02:52:54;;;;;;;27.30;18.90;;;10.40;99.90;;;;;;4982414;28;20548;-54
2021/12/25 02:55:20;;;;;;;26.40;17.63;;;10.30;99.90;;;;;;4984760;28;21072;-53
2021/12/25 02:57:50;;;;;;;21.77;16.03;;;10.30;99.90;;;;;;4983874;28;20468;-51
2021/12/25 03:00:18;;;;;;;25.20;16.53;;;10.30;99.90;;;;;;4982579;28;20241;-52
2021/12/25 03:02:44;;;;;;;25.10;16.13;;;10.30;99.90;;;;;;4982348;28;20437;-55
2021/12/25 03:05:09;;;;;;;27.23;17.60;;;10.40;99.90;;;;;;4981546;28;20465;-54
2021/12/25 03:07:35;;;;;;;27.87;17.77;;;10.50;99.90;;;;;;4983811;28;20200;-51
2021/12/25 03:10:01;;;;;;;28.17;18.30;;;10.40;99.90;;;;;;4983251;28;20233;-55
2021/12/25 03:12:34;;;;;;;27.50;17.00;;;10.30;99.90;;;;;;4983559;28;20679;-53
2021/12/25 03:15:45;;;;;;;26.67;17.57;;;10.40;99.90;;;;;;4982717;28;20733;-51
2021/12/25 03:17:53;;;;;;;24.40;16.50;;;10.30;99.90;;;;;;4982152;28;20437;-54
2021/12/25 03:20:18;;;;;;;26.47;17.37;;;10.30;99.90;;;;;;4984467;28;20494;-55
2021/12/25 03:22:44;;;;;;;27.97;17.47;;;10.40;99.90;;;;;;4985037;28;20461;-52
2021/12/25 03:25:13;;;;;;;26.70;16.47;;;10.40;99.90;;;;;;4984474;28;20205;-52
2021/12/25 03:27:40;;;;;;;25.17;15.40;;;10.30;99.90;;;;;;4983667;28;20190;-56
2021/12/25 03:30:09;;;;;;;26.73;16.03;;;10.40;99.90;;;;;;4984603;28;20794;-55
2021/12/25 03:32:34;;;;;;;23.03;16.67;;;10.30;99.90;;;;;;4982774;28;20567;-56
2021/12/25 03:35:00;;;;;;;28.20;16.30;;;10.20;99.90;;;;;;4983799;28;20487;-52
2021/12/25 03:37:27;;;;;;;25.07;15.90;;;10.20;99.90;;;;;;4985476;28;20185;-54
2021/12/25 03:39:52;;;;;;;23.67;16.30;;;10.10;99.90;;;;;;4984459;28;20444;-54
2021/12/25 03:42:18;;;;;;;23.03;14.50;;;10.00;99.90;;;;;;4983227;28;20491;-54
2021/12/25 03:44:44;;;;;;;22.83;16.33;;;10.10;99.90;;;;;;4982692;28;20209;-53
2021/12/25 03:47:25;;;;;;;26.07;16.23;;;9.90;99.90;;;;;;4980988;28;20276;-55
2021/12/25 03:58:08;;;;;;;21.83;14.60;;;10.00;99.90;;;;;;4981353;28;20444;-50
2021/12/25 04:00:35;;;;;;;24.30;15.60;;;10.00;99.90;;;;;;4969257;28;20982;-54
2021/12/25 04:03:06;;;;;;;24.50;14.20;;;10.10;99.90;;;;;;4982596;28;20445;-53
2021/12/25 04:05:32;;;;;;;21.53;13.73;;;10.20;99.90;;;;;;4985133;28;20511;-51
2021/12/25 04:08:02;;;;;;;22.23;14.43;;;10.20;99.90;;;;;;4986529;28;20490;-50
2021/12/25 04:10:33;;;;;;;26.87;14.17;;;10.20;99.90;;;;;;4970312;28;20429;-55
2021/12/25 04:12:59;;;;;;;20.13;13.60;;;10.30;99.90;;;;;;4984017;28;20498;-51
2021/12/25 04:15:25;;;;;;;21.30;13.30;;;10.30;99.90;;;;;;4983196;28;20489;-53
2021/12/25 04:17:50;;;;;;;19.20;12.77;;;10.40;99.90;;;;;;4981261;28;20265;-54
2021/12/25 04:20:17;;;;;;;20.47;13.53;;;10.30;99.90;;;;;;4985287;28;20228;-51
2021/12/25 04:22:53;;;;;;;18.53;13.10;;;10.40;99.90;;;;;;4983379;28;20240;-54
2021/12/25 04:25:23;;;;;;;19.20;11.63;;;10.40;99.90;;;;;;4984218;28;21038;-55
2021/12/25 04:27:49;;;;;;;19.57;12.17;;;10.40;99.90;;;;;;4983652;28;22053;-54
2021/12/25 04:30:45;;;;;;;19.63;12.17;;;10.40;99.90;;;;;;4985383;28;20437;-53
2021/12/25 04:50:08;;;;;;;26.53;15.07;;;9.90;99.90;;;;;;4986259;28;20814;-54
2021/12/25 05:03:25;;;;;;;26.57;15.87;;;10.00;99.90;;;;;;4985127;28;20492;-54
2021/12/25 05:05:52;;;;;;;28.07;16.67;;;9.90;99.90;;;;;;4986190;28;20553;-54
2021/12/25 05:08:18;;;;;;;26.70;16.23;;;9.90;99.90;;;;;;4968822;28;20524;-56
2021/12/25 05:10:44;;;;;;;26.80;16.60;;;9.90;99.90;;;;;;4990310;28;20501;-54
2021/12/25 05:13:09;;;;;;;26.00;16.60;;;9.80;99.90;;;;;;4982183;28;20475;-53
2021/12/25 05:15:35;;;;;;;29.23;16.40;;;9.80;99.90;;;;;;4983622;28;20205;-54
2021/12/25 05:18:01;;;;;;;29.43;17.03;;;9.80;99.90;;;;;;4986911;28;20427;-54
2021/12/25 05:20:27;;;;;;;24.27;14.90;;;9.70;99.90;;;;;;4984978;28;20186;-53
2021/12/25 05:22:53;;;;;;;27.90;17.47;;;9.70;99.90;;;;;;4970014;28;20472;-55
2021/12/25 05:25:18;;;;;;;24.90;16.40;;;9.80;99.90;;;;;;4983840;28;20228;-56
2021/12/25 05:27:46;;;;;;;31.00;17.73;;;9.80;99.90;;;;;;4985693;28;20192;-51
2021/12/25 05:30:12;;;;;;;24.97;16.90;;;9.90;99.90;;;;;;4985812;28;20178;-56
2021/12/25 05:32:38;;;;;;;26.10;16.80;;;9.80;99.90;;;;;;4984722;28;20469;-56
2021/12/25 05:35:04;;;;;;;24.40;16.03;;;9.80;99.90;;;;;;4987082;28;20456;-54
2021/12/25 05:37:31;;;;;;;27.57;16.60;;;9.80;99.90;;;;;;4983497;28;20186;-54
2021/12/25 05:39:56;;;;;;;27.20;15.43;;;9.70;99.90;;;;;;4986650;28;20471;-54
2021/12/25 05:42:22;;;;;;;31.13;17.60;;;9.70;99.90;;;;;;4985859;28;20476;-54
2021/12/25 05:44:49;;;;;;;28.87;16.43;;;9.70;99.90;;;;;;4985865;28;20209;-53
2021/12/25 05:47:15;;;;;;;29.67;17.97;;;9.70;99.90;;;;;;4986299;28;20434;-53
2021/12/25 05:49:41;;;;;;;26.13;16.80;;;9.60;99.90;;;;;;4983974;28;20425;-55
2021/12/25 05:52:06;;;;;;;28.50;17.23;;;9.70;99.90;;;;;;4984304;28;20440;-49
2021/12/25 05:54:33;;;;;;;30.07;16.80;;;9.70;99.90;;;;;;4984689;28;20636;-54
2021/12/25 05:56:59;;;;;;;26.60;18.37;;;9.70;99.90;;;;;;4985097;28;20565;-51
2021/12/25 05:59:24;;;;;;;25.37;16.97;;;9.70;99.90;;;;;;4983539;28;20437;-54
2021/12/25 06:01:50;;;;;;;29.00;17.33;;;9.70;99.90;;;;;;4986786;28;20209;-53
2021/12/25 06:04:15;;;;;;;29.47;17.90;;;9.70;99.90;;;;;;4984108;28;20699;-54
2021/12/25 06:06:41;;;;;;;25.97;17.63;;;9.70;99.90;;;;;;4986139;28;20312;-54
2021/12/25 06:09:09;;;;;;;27.47;17.80;;;9.80;99.90;;;;;;4984553;28;20249;-54
2021/12/25 06:11:38;;;;;;;27.87;17.87;;;9.80;99.90;;;;;;4985336;28;20662;-54
2021/12/25 06:14:17;;;;;;;24.17;16.67;;;9.80;99.90;;;;;;4984916;28;20468;-55
2021/12/25 06:16:43;;;;;;;23.60;15.90;;;9.70;99.90;;;;;;4983803;28;20795;-55
2021/12/25 06:19:09;;;;;;;23.83;15.87;;;9.70;99.90;;;;;;4985417;28;20433;-54
2021/12/25 06:21:35;;;;;;;25.00;18.00;;;9.70;99.90;;;;;;4984298;28;20440;-56
2021/12/25 06:24:02;;;;;;;26.63;18.40;;;9.70;99.90;;;;;;4980650;28;20989;-53
2021/12/25 06:26:29;;;;;;;25.57;17.57;;;9.60;99.90;;;;;;4984679;28;20586;-52
2021/12/25 06:28:55;;;;;;;25.03;17.10;;;9.70;99.90;;;;;;4984081;28;20527;-54
2021/12/25 06:31:22;;;;;;;27.03;18.70;;;9.60;99.90;;;;;;4984830;28;20453;-54
2021/12/25 06:33:47;;;;;;;27.50;17.47;;;9.50;99.90;;;;;;4982791;28;20469;-53
2021/12/25 06:36:13;;;;;;;25.70;16.50;;;9.60;99.90;;;;;;4982030;28;20448;-55
2021/12/25 06:38:41;;;;;;;26.93;17.50;;;9.60;99.90;;;;;;4985791;28;20264;-54
2021/12/25 06:41:07;;;;;;;27.30;17.70;;;9.60;99.90;;;;;;4983776;28;20433;-52
2021/12/25 06:43:33;;;;;;;24.83;16.90;;;9.60;99.90;;;;;;4984417;28;20511;-55
2021/12/25 06:45:59;;;;;;;23.63;15.30;;;9.60;99.90;;;;;;4982395;28;20465;-55
2021/12/25 06:48:26;;;;;;;25.30;16.97;;;9.60;99.90;;;;;;4982989;28;20476;-53
2021/12/25 06:50:52;;;;;;;25.47;16.87;;;9.60;99.90;;;;;;4983185;28;20460;-52
2021/12/25 06:53:17;;;;;;;25.50;16.77;;;9.60;99.90;;;;;;4983263;28;20473;-52
2021/12/25 06:55:43;;;;;;;24.10;17.80;;;9.60;99.90;;;;;;4983214;28;20929;-50
2021/12/25 06:58:08;;;;;;;28.70;17.20;;;9.50;99.90;;;;;;4982902;28;20192;-51
2021/12/25 07:00:34;;;;;;;24.00;16.20;;;9.50;99.90;;;;;;4981822;28;20201;-53
2021/12/25 07:03:00;;;;;;;24.40;17.13;;;9.50;99.90;;;;;;4982280;28;20204;-54
2021/12/25 07:05:25;;;;;;;26.00;16.23;;;9.50;99.90;;;;;;4980717;28;20216;-55
2021/12/25 07:07:52;;;;;;;21.73;15.30;;;9.50;99.90;;;;;;4982105;28;20640;-54
2021/12/25 07:10:18;;;;;;;24.83;17.50;;;9.50;99.90;;;;;;4982169;28;20743;-50
2021/12/25 07:12:47;;;;;;;25.27;17.40;;;9.50;99.90;;;;;;4983555;28;20970;-53
2021/12/25 07:15:13;;;;;;;23.50;16.87;;;9.50;99.90;;;;;;4984415;28;20866;-50
2021/12/25 07:17:39;;;;;;;27.40;16.17;;;9.50;99.90;;;;;;4980593;28;20837;-51
2021/12/25 07:20:05;;;;;;;26.97;16.40;;;9.50;99.90;;;;;;4983635;28;20428;-52
2021/12/25 07:22:31;;;;;;;22.57;16.47;;;9.50;99.90;;;;;;4964949;28;20217;-52
2021/12/25 07:24:56;;;;;;;24.53;16.37;;;9.50;99.90;;;;;;4983310;28;20995;-53
2021/12/25 07:27:22;;;;;;;24.00;15.17;;;9.60;99.90;;;;;;4979895;28;20185;-55
2021/12/25 07:29:48;;;;;;;26.20;17.73;;;9.60;99.90;;;;;;4981954;28;20202;-52
2021/12/25 07:32:14;;;;;;;25.20;17.70;;;9.50;99.90;;;;;;4981934;28;20186;-52
2021/12/25 07:34:40;;;;;;;32.73;16.43;;;9.50;99.90;;;;;;4982406;28;20206;-53
2021/12/25 07:37:06;;;;;;;28.07;16.80;;;9.60;99.90;;;;;;4981937;28;20193;-55
2021/12/25 07:39:32;;;;;;;24.10;16.07;;;9.60;99.90;;;;;;4976420;28;20592;-55
2021/12/25 07:41:58;;;;;;;24.13;16.17;;;9.50;99.90;;;;;;4961097;28;20986;-54
2021/12/25 07:44:24;;;;;;;24.10;16.00;;;9.50;99.90;;;;;;4981283;28;20429;-55
2021/12/25 07:46:50;;;;;;;22.67;15.27;;;9.60;99.90;;;;;;4981056;28;20495;-53
2021/12/25 07:49:19;;;;;;;20.17;14.63;;;9.60;99.90;;;;;;4981742;28;20170;-53
2021/12/25 07:51:45;;;;;;;21.23;15.83;;;9.60;99.90;;;;;;4980454;28;20533;-51
2021/12/25 07:54:11;;;;;;;27.33;17.57;;;9.60;99.90;;;;;;4982139;28;20764;-55
2021/12/25 07:56:37;;;;;;;25.17;16.50;;;9.60;99.90;;;;;;4983654;28;20914;-54
2021/12/25 07:59:04;;;;;;;22.77;16.03;;;9.60;99.90;;;;;;4982613;28;20192;-51
2021/12/25 08:01:32;;;;;;;25.70;15.20;;;9.60;99.90;;;;;;4982837;28;20448;-54
2021/12/25 08:03:58;;;;;;;24.13;15.60;;;9.60;99.90;;;;;;4969268;28;20492;-56
2021/12/25 08:06:23;;;;;;;28.70;15.77;;;9.60;99.90;;;;;;4983607;28;20507;-54
2021/12/25 08:08:54;;;;;;;25.73;15.20;;;9.60;99.90;;;;;;4983875;28;20815;-56
2021/12/25 08:11:19;;;;;;;25.20;15.10;;;9.70;99.90;;;;;;4982017;28;20190;-57
2021/12/25 08:13:45;;;;;;;26.00;15.70;;;9.70;99.90;;;;;;4983349;28;20891;-56
2021/12/25 08:16:11;;;;;;;25.40;15.77;;;9.70;99.90;;;;;;4981299;28;20205;-53
2021/12/25 08:18:36;;;;;;;20.47;14.30;;;9.70;99.90;;;;;;4982444;28;20675;-53
2021/12/25 08:21:04;;;;;;;18.37;13.87;;;9.70;99.90;;;;;;4983530;28;20201;-54
2021/12/25 08:23:30;;;;;;;18.53;12.83;;;9.70;99.90;;;;;;4983940;28;20189;-54
2021/12/25 08:25:56;;;;;;;16.77;12.40;;;9.80;99.90;;;;;;4982161;28;20534;-54
2021/12/25 08:28:22;;;;;;;18.90;13.83;;;9.70;99.90;;;;;;4966492;28;21019;-51
2021/12/25 08:30:47;;;;;;;16.67;13.73;;;9.80;99.90;;;;;;4982868;28;20268;-54
2021/12/25 08:33:13;;;;;;;23.43;15.90;;;9.80;99.90;;;;;;4981455;28;20205;-52
2021/12/25 08:35:39;;;;;;;17.63;12.83;;;9.80;99.90;;;;;;4982540;28;20280;-52
2021/12/25 08:38:04;;;;;;;19.33;13.20;;;9.80;99.90;;;;;;4984208;28;20194;-55
2021/12/25 08:40:30;;;;;;;20.07;13.03;;;9.80;99.90;;;;;;4986691;28;20187;-54
2021/12/25 08:43:01;;;;;;;19.30;12.63;;;9.80;99.90;;;;;;4980747;28;20181;-53
2021/12/25 08:45:41;;;;;;;24.47;14.73;;;9.80;99.90;;;;;;4966311;28;20216;-54
2021/12/25 08:48:15;;;;;;;20.10;13.77;;;9.90;99.90;;;;;;4981478;28;21248;-50
2021/12/25 08:50:44;;;;;;;16.97;12.70;;;9.90;99.90;;;;;;4981564;28;20436;-53
2021/12/25 08:53:09;;;;;;;20.33;14.00;;;9.90;99.90;;;;;;4985353;28;20461;-52
2021/12/25 08:55:35;;;;;;;20.17;13.93;;;10.00;99.90;;;;;;4986775;28;21061;-53
2021/12/25 08:58:01;;;;;;;21.77;13.67;;;10.00;99.90;;;;;;4982847;28;20225;-54
2021/12/25 09:00:27;;;;;;;18.67;12.83;;;10.00;99.90;;;;;;4985373;28;20205;-53
2021/12/25 09:02:53;;;;;;;18.37;12.77;;;10.00;99.90;;;;;;4984645;28;20429;-54
2021/12/25 09:05:18;;;;;;;18.23;14.40;;;10.10;99.90;;;;;;4983976;28;20714;-53
2021/12/25 09:07:45;;;;;;;19.80;12.80;;;10.10;99.90;;;;;;4985905;28;20190;-55
2021/12/25 09:10:11;;;;;;;19.10;12.50;;;10.10;99.90;;;;;;4983420;28;20201;-56
2021/12/25 09:12:40;;;;;;;20.63;12.30;;;10.10;99.90;;;;;;4986040;28;20473;-55
2021/12/25 09:15:07;;;;;;;23.80;13.30;;;10.10;99.90;;;;;;4985558;28;20206;-53
2021/12/25 09:17:32;;;;;;;18.43;12.00;;;10.10;99.90;;;;;;4977712;28;20446;-54
2021/12/25 09:19:58;;;;;;;15.63;12.17;;;10.10;99.90;;;;;;4983198;28;20447;-53
2021/12/25 09:22:23;;;;;;;16.47;13.17;;;10.10;99.90;;;;;;4983701;28;20187;-53
2021/12/25 09:24:49;;;;;;;18.40;13.77;;;10.20;99.90;;;;;;4983422;28;20272;-54
2021/12/25 09:27:15;;;;;;;18.77;12.40;;;10.20;99.90;;;;;;4979697;28;20198;-52
2021/12/25 09:29:40;;;;;;;15.63;11.83;;;10.30;99.90;;;;;;4981832;28;20749;-52
2021/12/25 09:32:07;;;;;;;16.23;11.03;;;10.30;99.90;;;;;;4976921;28;20189;-50
2021/12/25 09:34:32;;;;;;;17.87;12.10;;;10.40;99.90;;;;;;4982009;28;20538;-52
2021/12/25 09:36:58;;;;;;;16.13;11.97;;;10.30;99.90;;;;;;4983977;28;20442;-54
2021/12/25 09:39:23;;;;;;;16.33;12.63;;;10.40;99.90;;;;;;4975839;28;20209;-54
2021/12/25 09:41:49;;;;;;;19.17;11.53;;;10.40;99.90;;;;;;4983955;28;20669;-54
2021/12/25 09:44:15;;;;;;;19.13;11.43;;;10.40;99.90;;;;;;4982477;28;20213;-54
2021/12/25 09:46:41;;;;;;;16.30;11.20;;;10.50;99.90;;;;;;4983461;28;20566;-52
2021/12/25 09:49:08;;;;;;;15.13;10.60;;;10.50;99.90;;;;;;4981728;28;21031;-52
2021/12/25 09:51:33;;;;;;;15.03;10.80;;;10.40;99.90;;;;;;4979050;28;20446;-54
2021/12/25 09:54:06;;;;;;;14.30;10.00;;;10.50;99.90;;;;;;4973963;28;21011;-56
2021/12/25 09:56:34;;;;;;;16.73;10.80;;;10.50;99.90;;;;;;4986202;28;20252;-56
2021/12/25 09:58:59;;;;;;;16.30;11.20;;;10.50;99.90;;;;;;4983054;28;20460;-54
2021/12/25 10:01:36;;;;;;;13.77;9.60;;;10.50;99.90;;;;;;4978032;28;20429;-56
2021/12/25 10:04:02;;;;;;;15.80;10.53;;;10.50;99.90;;;;;;4984043;28;20188;-56
2021/12/25 10:06:36;;;;;;;14.57;9.70;;;10.60;99.90;;;;;;4983300;28;20511;-57
2021/12/25 10:09:18;;;;;;;16.67;9.93;;;10.60;99.90;;;;;;4980583;28;20459;-58
2021/12/25 10:12:03;;;;;;;14.23;9.87;;;10.60;99.90;;;;;;4982060;28;20506;-55
2021/12/25 10:14:30;;;;;;;15.50;10.90;;;10.50;99.90;;;;;;4976025;28;20463;-54
2021/12/25 10:16:56;;;;;;;11.30;8.97;;;10.60;99.90;;;;;;4976308;28;20441;-52
2021/12/25 10:19:23;;;;;;;14.53;10.10;;;10.60;99.90;;;;;;4980122;28;20440;-54
2021/12/25 10:22:11;;;;;;;18.70;12.87;;;10.70;99.90;;;;;;4983997;28;20209;-55
2021/12/25 10:24:50;;;;;;;14.70;11.10;;;10.70;99.90;;;;;;4985105;28;20500;-56
2021/12/25 10:27:20;;;;;;;20.33;13.30;;;10.70;99.90;;;;;;4982498;28;20429;-53
2021/12/25 10:29:47;;;;;;;23.27;13.43;;;10.70;99.90;;;;;;4982872;28;20773;-56
2021/12/25 10:32:24;;;;;;;16.63;11.40;;;10.80;99.90;;;;;;4982834;28;20440;-50
2021/12/25 10:34:51;;;;;;;13.67;9.70;;;10.80;99.90;;;;;;4980953;28;20633;-54
2021/12/25 10:37:19;;;;;;;12.60;8.90;;;10.90;99.90;;;;;;4983649;28;20433;-54
2021/12/25 10:39:46;;;;;;;15.03;11.47;;;10.90;99.90;;;;;;4983306;28;20433;-56
2021/12/25 10:42:17;;;;;;;12.37;9.50;;;10.80;99.90;;;;;;4977171;28;21197;-55
2021/12/25 10:44:50;;;;;;;12.13;9.70;;;10.80;99.90;;;;;;4982150;28;20589;-55
2021/12/25 10:47:20;;;;;;;11.90;8.40;;;10.70;99.90;;;;;;4973698;28;20524;-53
2021/12/25 10:49:47;;;;;;;14.17;9.90;;;10.70;99.90;;;;;;4976774;28;20953;-56
2021/12/25 10:52:23;;;;;;;11.87;9.40;;;10.70;99.90;;;;;;4966625;28;20613;-54
2021/12/25 10:54:51;;;;;;;16.17;10.67;;;10.60;99.90;;;;;;4976254;28;20547;-54
2021/12/25 10:57:42;;;;;;;14.37;9.80;;;10.70;99.90;;;;;;4983329;28;20421;-54
2021/12/25 11:00:31;;;;;;;16.70;11.33;;;10.70;99.90;;;;;;4975051;28;20892;-54
2021/12/25 11:03:06;;;;;;;14.07;10.83;;;10.80;99.90;;;;;;4971187;28;20840;-53
2021/12/25 11:05:33;;;;;;;14.03;10.63;;;10.80;99.90;;;;;;4980620;28;20463;-53
2021/12/25 11:08:15;;;;;;;16.20;10.63;;;10.90;99.90;;;;;;4978056;28;20453;-53
2021/12/25 11:10:51;;;;;;;14.90;9.93;;;10.90;99.90;;;;;;4979972;28;20437;-55
2021/12/25 11:13:21;;;;;;;13.23;10.87;;;10.90;99.90;;;;;;4979558;28;20468;-53
2021/12/25 11:15:48;;;;;;;12.30;9.93;;;11.00;99.90;;;;;;4982046;28;20532;-56
2021/12/25 11:18:15;;;;;;;13.10;10.53;;;11.00;99.90;;;;;;4982847;28;20512;-55
2021/12/25 11:20:42;;;;;;;14.20;11.23;;;11.10;99.90;;;;;;4985531;28;20508;-56
2021/12/25 11:23:10;;;;;;;14.87;10.67;;;11.30;99.90;;;;;;4981080;28;20841;-57
2021/12/25 11:25:38;;;;;;;13.27;9.80;;;11.30;99.90;;;;;;4984525;28;20556;-55
2021/12/25 11:28:07;;;;;;;13.90;11.20;;;11.30;99.90;;;;;;4980619;28;20977;-50
2021/12/25 11:30:35;;;;;;;16.23;10.33;;;11.30;99.90;;;;;;4982317;28;20437;-53
2021/12/25 11:33:02;;;;;;;13.33;10.20;;;11.10;99.90;;;;;;4982770;28;20476;-55
2021/12/25 11:35:28;;;;;;;13.00;10.50;;;11.10;99.90;;;;;;4980418;28;20753;-51
2021/12/25 11:37:55;;;;;;;16.53;11.03;;;11.10;99.90;;;;;;4973201;28;20464;-53
2021/12/25 11:40:26;;;;;;;13.53;10.20;;;11.20;99.90;;;;;;4977295;28;20436;-56
2021/12/25 11:42:54;;;;;;;16.67;11.13;;;11.10;99.90;;;;;;4973508;28;20487;-56
2021/12/25 11:45:29;;;;;;;13.03;9.90;;;11.20;99.90;;;;;;4973250;28;20468;-56
2021/12/25 11:48:01;;;;;;;16.07;9.13;;;11.30;99.90;;;;;;4975777;28;21028;-54
2021/12/25 11:50:39;;;;;;;14.53;9.90;;;11.20;99.90;;;;;;4983251;28;20436;-54
2021/12/25 11:53:19;;;;;;;12.00;9.57;;;11.10;99.90;;;;;;4984168;28;20548;-55
2021/12/25 11:56:14;;;;;;;13.53;9.70;;;11.20;99.90;;;;;;4968143;28;20535;-55
2021/12/25 11:58:52;;;;;;;14.17;9.97;;;11.30;99.90;;;;;;4975551;28;20659;-52
2021/12/25 12:01:26;;;;;;;11.83;9.83;;;11.30;99.90;;;;;;4975923;28;20436;-55
2021/12/25 12:03:58;;;;;;;15.40;9.10;;;11.30;99.90;;;;;;4969839;28;20437;-51
2021/12/25 12:06:51;;;;;;;14.83;10.20;;;11.30;99.90;;;;;;4964143;28;20468;-52
2021/12/25 12:09:28;;;;;;;16.90;9.40;;;11.40;99.90;;;;;;4984270;28;20792;-54
2021/12/25 12:12:03;;;;;;;14.70;10.43;;;11.40;99.90;;;;;;4978355;28;20515;-54
2021/12/25 12:14:28;;;;;;;11.23;8.73;;;11.30;99.90;;;;;;4966690;28;20460;-55
2021/12/25 12:16:55;;;;;;;13.60;10.50;;;11.40;99.90;;;;;;4982050;28;20448;-55
2021/12/25 12:19:34;;;;;;;12.30;10.40;;;11.30;99.90;;;;;;4981241;28;20194;-56
2021/12/25 12:22:18;;;;;;;15.83;10.10;;;11.40;99.90;;;;;;4979404;28;20440;-49
2021/12/25 12:25:13;;;;;;;14.83;9.93;;;11.50;99.90;;;;;;4981725;28;21020;-55
2021/12/25 12:27:42;;;;;;;17.17;10.90;;;11.40;99.90;;;;;;4984618;28;20794;-56
2021/12/25 12:30:11;;;;;;;10.90;8.53;;;11.40;99.90;;;;;;4983326;28;20453;-54
2021/12/25 12:32:43;;;;;;;13.27;9.73;;;11.40;99.90;;;;;;4982886;28;20460;-56
2021/12/25 12:35:39;;;;;;;15.53;10.50;;;11.30;99.90;;;;;;4981375;28;20464;-53
2021/12/25 12:38:25;;;;;;;14.27;9.40;;;11.30;99.90;;;;;;4985250;28;20414;-50
2021/12/25 12:41:30;;;;;;;13.33;10.13;;;11.30;99.90;;;;;;4982787;28;21034;-53
2021/12/25 12:44:07;;;;;;;14.23;11.00;;;11.40;99.90;;;;;;4982226;28;20440;-54
2021/12/25 12:46:51;;;;;;;13.03;9.80;;;11.30;99.90;;;;;;4963455;28;20436;-56
2021/12/25 12:49:31;;;;;;;14.37;10.20;;;11.30;99.90;;;;;;4985382;28;20429;-52
2021/12/25 12:52:23;;;;;;;16.03;11.33;;;11.50;99.90;;;;;;4983185;28;20468;-54
2021/12/25 12:55:01;;;;;;;15.70;11.70;;;11.50;99.90;;;;;;4983270;28;20453;-56
2021/12/25 12:57:36;;;;;;;13.53;10.73;;;11.50;99.90;;;;;;4982046;28;20439;-54
2021/12/25 13:00:17;;;;;;;14.87;11.50;;;11.50;99.90;;;;;;4979372;28;20445;-53
2021/12/25 13:02:48;;;;;;;15.10;10.50;;;11.50;99.90;;;;;;4984941;28;20769;-55
2021/12/25 13:05:18;;;;;;;12.40;11.10;;;11.50;99.90;;;;;;4982696;28;20826;-54
2021/12/25 13:07:46;;;;;;;13.70;10.10;;;11.50;99.90;;;;;;4982350;28;20531;-53
2021/12/25 13:10:20;;;;;;;15.33;11.20;;;11.40;99.90;;;;;;4968066;28;20437;-53
2021/12/25 13:12:49;;;;;;;13.73;11.17;;;11.60;99.90;;;;;;4981613;28;20468;-54
2021/12/25 13:15:15;;;;;;;13.93;10.77;;;11.70;99.90;;;;;;4965355;28;20457;-53
2021/12/25 13:17:57;;;;;;;16.97;10.10;;;11.60;99.90;;;;;;4983851;28;20437;-55
2021/12/25 13:20:44;;;;;;;12.37;10.07;;;11.60;99.90;;;;;;4982544;28;20437;-55
2021/12/25 13:23:16;;;;;;;11.33;10.13;;;11.50;99.90;;;;;;4966959;28;22231;-54
2021/12/25 13:26:03;;;;;;;12.73;10.47;;;11.40;99.90;;;;;;4981101;28;20473;-53
2021/12/25 13:28:33;;;;;;;14.30;10.83;;;11.30;99.90;;;;;;4982253;28;20769;-52
2021/12/25 13:31:10;;;;;;;16.17;11.20;;;11.50;99.90;;;;;;4967217;28;21043;-56
2021/12/25 13:33:47;;;;;;;19.43;15.30;;;11.50;99.90;;;;;;4979867;28;20662;-54
2021/12/25 13:36:17;;;;;;;25.67;17.80;;;11.50;99.90;;;;;;4981033;28;20495;-54
2021/12/25 13:38:50;;;;;;;25.37;18.90;;;11.20;99.90;;;;;;4966147;28;21160;-53
2021/12/25 13:41:34;;;;;;;25.10;19.10;;;11.10;99.90;;;;;;4981127;28;20468;-55
2021/12/25 13:44:04;;;;;;;28.97;20.03;;;11.00;99.90;;;;;;4978888;28;20440;-52
2021/12/25 13:46:43;;;;;;;29.00;20.27;;;10.90;99.90;;;;;;4983380;28;20507;-52
2021/12/25 13:49:40;;;;;;;31.60;19.47;;;10.70;99.90;;;;;;4975425;28;20440;-53
2021/12/25 13:52:11;;;;;;;30.50;21.17;;;10.50;99.90;;;;;;4966891;28;20960;-55